createdAt,value
2019-03-06T00:02:01.578Z,11.57
2019-03-06T00:04:31.603Z,8.43
2019-03-06T00:07:01.305Z,11.08
2019-03-06T00:09:31.035Z,10.60
2019-03-06T00:12:00.724Z,9.38
2019-03-06T00:14:30.353Z,10.98
2019-03-06T00:17:00.044Z,9.88
2019-03-06T00:19:29.698Z,9.43
2019-03-06T00:21:59.365Z,12.00
2019-03-06T00:24:28.981Z,10.95
2019-03-06T00:26:58.686Z,9.75
2019-03-06T00:29:28.410Z,10.08
2019-03-06T00:31:58.020Z,12.53
2019-03-06T00:34:27.717Z,10.08
2019-03-06T00:36:57.349Z,11.00
2019-03-06T00:39:30.566Z,10.68
2019-03-06T00:42:00.154Z,9.03
2019-03-06T00:44:29.837Z,10.98
2019-03-06T00:46:59.454Z,10.50
2019-03-06T00:49:29.160Z,11.45
2019-03-06T00:51:58.869Z,9.40
2019-03-06T00:54:28.497Z,9.08
2019-03-06T00:56:58.097Z,11.22
2019-03-06T00:59:27.716Z,11.25
2019-03-06T01:01:57.477Z,10.88
2019-03-06T01:04:27.136Z,9.55
2019-03-06T01:06:56.930Z,11.88
2019-03-06T01:09:26.562Z,9.60
2019-03-06T01:11:56.251Z,9.80
2019-03-06T01:14:26.184Z,10.98
2019-03-06T01:16:55.879Z,8.85
2019-03-06T01:19:25.579Z,9.88
2019-03-06T01:21:55.304Z,9.78
2019-03-06T01:24:25.013Z,9.35
2019-03-06T01:26:54.922Z,10.00
2019-03-06T01:29:24.636Z,9.60
2019-03-06T01:31:54.369Z,9.00
2019-03-06T01:34:42.821Z,9.05
2019-03-06T01:37:26.982Z,8.25
2019-03-06T01:40:24.765Z,8.58
2019-03-06T01:43:22.580Z,7.85
2019-03-06T01:45:52.193Z,10.38
2019-03-06T01:48:21.824Z,9.88
2019-03-06T01:50:51.509Z,10.45
2019-03-06T01:53:21.142Z,10.58
2019-03-06T01:55:50.827Z,8.70
2019-03-06T01:58:20.538Z,9.80
2019-03-06T02:00:50.163Z,12.55
2019-03-06T02:03:19.854Z,9.60
2019-03-06T02:05:49.498Z,8.03
2019-03-06T02:08:19.182Z,12.05
2019-03-06T02:10:49.020Z,8.48
2019-03-06T02:13:19.214Z,7.85
2019-03-06T02:15:48.843Z,10.00
2019-03-06T02:18:18.532Z,9.35
2019-03-06T02:20:48.224Z,9.50
2019-03-06T02:23:17.853Z,8.58
2019-03-06T02:25:47.486Z,9.43
2019-03-06T02:28:17.172Z,9.33
2019-03-06T02:30:46.887Z,9.98
2019-03-06T02:33:16.598Z,9.38
2019-03-06T02:35:46.319Z,9.78
2019-03-06T02:38:15.939Z,7.65
2019-03-06T02:40:45.836Z,8.65
2019-03-06T02:43:15.465Z,11.53
2019-03-06T02:45:45.213Z,10.70
2019-03-06T02:48:14.890Z,9.08
2019-03-06T02:50:44.573Z,9.18
2019-03-06T02:53:14.179Z,8.43
2019-03-06T02:55:43.784Z,9.98
2019-03-06T02:58:23.841Z,9.08
2019-03-06T03:01:27.445Z,7.40
2019-03-06T03:04:18.571Z,9.05
2019-03-06T03:06:57.216Z,9.38
2019-03-06T03:09:26.825Z,8.40
2019-03-06T03:11:56.706Z,8.28
2019-03-06T03:14:26.333Z,9.20
2019-03-06T03:16:56.032Z,8.58
2019-03-06T03:19:25.660Z,12.85
2019-03-06T03:21:55.352Z,10.80
2019-03-06T03:24:24.964Z,7.90
2019-03-06T03:26:54.777Z,8.10
2019-03-06T03:29:24.471Z,8.00
2019-03-06T03:31:54.193Z,9.23
2019-03-06T03:34:23.900Z,10.95
2019-03-06T03:36:53.522Z,8.05
2019-03-06T03:39:23.217Z,8.55
2019-03-06T03:41:52.853Z,7.65
2019-03-06T03:44:22.530Z,8.85
2019-03-06T03:46:52.209Z,9.28
2019-03-06T03:49:21.862Z,7.53
2019-03-06T03:51:51.574Z,7.92
2019-03-06T03:54:21.278Z,10.75
2019-03-06T03:56:50.997Z,7.12
2019-03-06T03:59:20.605Z,7.37
2019-03-06T04:01:50.319Z,9.33
2019-03-06T04:04:19.946Z,7.53
2019-03-06T04:06:49.636Z,7.87
2019-03-06T04:09:19.240Z,7.35
2019-03-06T04:11:49.006Z,8.63
2019-03-06T04:14:18.655Z,7.00
2019-03-06T04:16:48.368Z,6.58
2019-03-06T04:19:18.091Z,6.90
2019-03-06T04:21:47.716Z,7.58
2019-03-06T04:24:17.393Z,9.08
2019-03-06T04:26:47.033Z,7.55
2019-03-06T04:29:16.729Z,6.95
2019-03-06T04:31:46.346Z,7.70
2019-03-06T04:34:16.048Z,8.00
2019-03-06T04:36:45.749Z,6.75
2019-03-06T04:39:15.467Z,7.15
2019-03-06T04:41:45.171Z,5.33
2019-03-06T04:44:14.863Z,6.58
2019-03-06T04:46:44.600Z,7.20
2019-03-06T04:49:14.223Z,6.42
2019-03-06T04:51:44.052Z,8.60
2019-03-06T04:54:13.649Z,7.25
2019-03-06T04:56:43.342Z,7.30
2019-03-06T04:59:13.047Z,6.65
2019-03-06T05:01:42.777Z,5.75
2019-03-06T05:04:12.484Z,8.43
2019-03-06T05:06:41.875Z,7.62
2019-03-06T05:09:12.127Z,7.45
2019-03-06T05:11:41.808Z,6.15
2019-03-06T05:14:11.781Z,5.55
2019-03-06T05:17:00.192Z,7.80
2019-03-06T05:19:29.816Z,9.53
2019-03-06T05:21:59.521Z,7.30
2019-03-06T05:24:29.207Z,7.67
2019-03-06T05:26:58.920Z,11.03
2019-03-06T05:29:28.823Z,6.50
2019-03-06T05:32:26.640Z,6.22
2019-03-06T05:34:56.410Z,5.90
2019-03-06T05:38:12.870Z,6.80
2019-03-06T05:40:46.371Z,10.15
2019-03-06T05:43:16.613Z,7.90
2019-03-06T05:45:47.373Z,8.35
2019-03-06T05:48:16.804Z,6.12
2019-03-06T05:50:46.414Z,7.72
2019-03-06T05:53:16.243Z,7.12
2019-03-06T05:55:45.821Z,8.28
2019-03-06T05:58:15.523Z,8.28
2019-03-06T06:00:45.195Z,8.15
2019-03-06T06:03:14.844Z,9.43
2019-03-06T06:05:44.611Z,8.53
2019-03-06T06:08:14.182Z,7.10
2019-03-06T06:10:43.860Z,10.13
2019-03-06T06:13:13.398Z,7.17
2019-03-06T06:15:43.082Z,8.63
2019-03-06T06:18:12.719Z,8.65
2019-03-06T06:20:42.400Z,5.53
2019-03-06T06:23:36.958Z,7.30
2019-03-06T06:26:06.687Z,9.33
2019-03-06T06:28:36.540Z,9.43
2019-03-06T06:31:06.276Z,10.98
2019-03-06T06:33:35.860Z,8.55
2019-03-06T06:36:05.558Z,6.40
2019-03-06T06:38:37.356Z,7.67
2019-03-06T06:41:06.713Z,11.93
2019-03-06T06:43:36.431Z,9.58
2019-03-06T06:46:07.564Z,13.08
2019-03-06T06:48:37.396Z,9.03
2019-03-06T06:51:12.428Z,10.75
2019-03-06T06:53:55.915Z,26.62
2019-03-06T06:56:47.085Z,19.23
2019-03-06T06:59:51.390Z,22.50
2019-03-06T07:03:40.847Z,17.55
2019-03-06T07:06:34.177Z,16.55
2019-03-06T07:09:17.817Z,17.65
2019-03-06T07:12:00.426Z,20.75
2019-03-06T07:14:54.919Z,19.70
2019-03-06T07:17:58.404Z,18.42
2019-03-06T07:20:40.800Z,16.00
2019-03-06T07:23:24.230Z,15.32
2019-03-06T07:26:15.800Z,13.93
2019-03-06T07:29:04.226Z,13.85
2019-03-06T07:31:55.829Z,14.05
2019-03-06T07:34:33.316Z,25.27
2019-03-06T07:37:16.325Z,19.23
2019-03-06T07:39:53.837Z,19.87
2019-03-06T07:43:00.405Z,21.42
2019-03-06T07:46:05.646Z,18.30
2019-03-06T07:49:03.112Z,18.50
2019-03-06T07:51:39.219Z,16.80
2019-03-06T07:54:27.944Z,16.77
2019-03-06T07:57:01.360Z,19.77
2019-03-06T07:59:31.037Z,15.63
2019-03-06T08:02:07.368Z,17.65
2019-03-06T08:04:36.930Z,14.38
2019-03-06T08:07:14.005Z,15.90
2019-03-06T08:09:43.712Z,16.55
2019-03-06T08:12:30.798Z,15.53
2019-03-06T08:15:34.560Z,15.78
2019-03-06T08:18:26.805Z,15.65
2019-03-06T08:21:27.569Z,15.85
2019-03-06T08:24:19.077Z,16.15
2019-03-06T08:26:48.669Z,14.00
2019-03-06T08:29:18.353Z,11.90
2019-03-06T08:31:53.752Z,15.20
2019-03-06T08:34:23.337Z,17.77
2019-03-06T08:36:53.025Z,16.90
2019-03-06T08:39:25.801Z,15.13
2019-03-06T08:41:55.522Z,12.45
2019-03-06T08:44:25.220Z,15.15
2019-03-06T08:47:16.469Z,15.70
2019-03-06T08:50:04.909Z,13.53
2019-03-06T08:53:00.737Z,15.55
2019-03-06T08:55:57.967Z,32.78
2019-03-06T08:58:55.738Z,14.73
2019-03-06T09:01:40.812Z,24.00
2019-03-06T09:04:27.858Z,21.37
2019-03-06T09:07:22.108Z,22.00
2019-03-06T09:10:10.584Z,23.55
2019-03-06T09:12:47.885Z,18.95
2019-03-06T09:15:39.433Z,21.37
2019-03-06T09:18:30.665Z,17.90
2019-03-06T09:21:28.293Z,15.40
2019-03-06T09:24:15.502Z,20.00
2019-03-06T09:27:05.465Z,20.02
2019-03-06T09:30:02.836Z,22.62
2019-03-06T09:32:43.994Z,17.77
2019-03-06T09:35:38.937Z,17.52
2019-03-06T09:38:23.287Z,16.57
2019-03-06T09:41:11.438Z,17.35
2019-03-06T09:43:55.646Z,19.00
2019-03-06T09:46:34.618Z,14.35
2019-03-06T09:49:26.307Z,13.60
2019-03-06T09:52:13.412Z,17.87
2019-03-06T09:55:17.231Z,15.50
2019-03-06T09:58:10.017Z,16.85
2019-03-06T10:00:58.470Z,15.13
2019-03-06T10:03:54.724Z,14.78
2019-03-06T10:06:49.221Z,13.90
2019-03-06T10:09:40.419Z,15.72
2019-03-06T10:12:28.864Z,17.10
2019-03-06T10:15:18.966Z,15.40
2019-03-06T10:17:53.575Z,20.97
2019-03-06T10:20:25.436Z,26.25
2019-03-06T10:22:59.518Z,45.65
2019-03-06T10:25:29.952Z,58.20
2019-03-06T10:28:05.978Z,57.75
2019-03-06T10:30:29.302Z,62.25
2019-03-06T10:32:58.985Z,56.90
2019-03-06T10:35:28.693Z,52.03
2019-03-06T10:37:58.601Z,46.33
2019-03-06T10:40:28.363Z,57.00
2019-03-06T10:42:58.443Z,51.95
2019-03-06T10:45:28.069Z,56.75
2019-03-06T10:47:58.005Z,56.30
2019-03-06T10:50:29.828Z,60.00
2019-03-06T10:52:59.022Z,78.28
2019-03-06T10:55:28.666Z,73.47
2019-03-06T10:57:58.541Z,80.62
2019-03-06T11:00:31.550Z,85.47
2019-03-06T11:03:01.449Z,78.33
2019-03-06T11:05:32.621Z,78.37
2019-03-06T11:08:02.205Z,83.40
2019-03-06T11:10:33.513Z,84.07
2019-03-06T11:13:04.438Z,84.52
2019-03-06T11:15:34.199Z,77.67
2019-03-06T11:18:03.844Z,85.85
2019-03-06T11:20:33.929Z,88.37
2019-03-06T11:23:03.752Z,86.45
2019-03-06T11:25:33.656Z,80.25
2019-03-06T11:28:03.295Z,75.08
2019-03-06T11:30:35.305Z,81.17
2019-03-06T11:33:05.440Z,79.07
2019-03-06T11:35:35.117Z,83.97
2019-03-06T11:38:04.888Z,86.47
2019-03-06T11:40:35.580Z,88.00
2019-03-06T11:43:05.537Z,87.92
2019-03-06T11:45:35.317Z,79.20
2019-03-06T11:48:05.050Z,83.42
2019-03-06T11:50:40.928Z,88.52
2019-03-06T11:53:06.428Z,94.95
2019-03-06T11:55:36.042Z,85.03
2019-03-06T11:58:05.741Z,86.10
2019-03-06T12:00:39.012Z,86.15
2019-03-06T12:03:08.752Z,89.85
2019-03-06T12:05:38.569Z,88.72
2019-03-06T12:08:10.378Z,92.02
2019-03-06T12:10:40.031Z,84.17
2019-03-06T12:13:14.264Z,86.05
2019-03-06T12:15:45.137Z,94.45
2019-03-06T12:18:14.798Z,87.82
2019-03-06T12:20:44.620Z,79.00
2019-03-06T12:23:14.317Z,82.85
2019-03-06T12:25:44.025Z,82.15
2019-03-06T12:28:14.457Z,82.78
2019-03-06T12:30:44.078Z,80.07
2019-03-06T12:33:18.631Z,79.75
2019-03-06T12:35:48.223Z,74.30
2019-03-06T12:38:18.217Z,77.03
2019-03-06T12:40:47.855Z,78.50
2019-03-06T12:43:17.445Z,75.55
2019-03-06T12:46:23.458Z,78.28
2019-03-06T12:49:08.365Z,71.82
2019-03-06T12:51:38.417Z,75.00
2019-03-06T12:54:08.866Z,69.03
2019-03-06T12:56:38.449Z,74.37
2019-03-06T12:59:08.140Z,71.80
2019-03-06T13:01:39.165Z,74.27
2019-03-06T13:04:08.916Z,68.75
2019-03-06T13:06:38.587Z,69.75
2019-03-06T13:09:13.657Z,66.77
2019-03-06T13:11:43.367Z,69.15
2019-03-06T13:14:13.077Z,69.32
2019-03-06T13:16:42.879Z,63.28
2019-03-06T13:19:12.378Z,62.62
2019-03-06T13:21:42.075Z,61.48
2019-03-06T13:24:12.192Z,58.87
2019-03-06T13:26:41.829Z,59.67
2019-03-06T13:29:11.446Z,57.67
2019-03-06T13:31:41.206Z,55.17
2019-03-06T13:34:51.190Z,53.30
2019-03-06T13:37:19.749Z,50.73
2019-03-06T13:39:49.478Z,55.33
2019-03-06T13:42:19.130Z,52.43
2019-03-06T13:44:48.792Z,52.85
2019-03-06T13:47:18.470Z,51.80
2019-03-06T13:49:48.202Z,50.85
2019-03-06T13:52:17.945Z,55.40
2019-03-06T13:54:49.307Z,48.00
2019-03-06T13:57:19.003Z,51.53
2019-03-06T13:59:48.754Z,50.45
2019-03-06T14:02:18.415Z,50.12
2019-03-06T14:04:48.146Z,50.05
2019-03-06T14:07:17.837Z,49.30
2019-03-06T14:09:47.455Z,48.73
2019-03-06T14:12:17.053Z,53.05
2019-03-06T14:14:46.686Z,46.53
2019-03-06T14:17:16.373Z,47.88
2019-03-06T14:19:46.362Z,47.55
2019-03-06T14:22:16.115Z,51.35
2019-03-06T14:24:45.717Z,57.30
2019-03-06T14:27:15.597Z,64.03
2019-03-06T14:29:45.260Z,57.20
2019-03-06T14:32:15.160Z,59.13
2019-03-06T14:34:44.821Z,58.52
2019-03-06T14:37:14.474Z,62.00
2019-03-06T14:39:44.198Z,54.40
2019-03-06T14:42:13.802Z,60.33
2019-03-06T14:44:43.537Z,57.48
2019-03-06T14:47:13.262Z,55.35
2019-03-06T14:49:43.017Z,54.58
2019-03-06T14:52:12.725Z,55.70
2019-03-06T14:54:42.441Z,56.48
2019-03-06T14:57:12.051Z,51.37
2019-03-06T14:59:41.690Z,54.63
2019-03-06T15:02:11.672Z,52.78
2019-03-06T15:04:41.316Z,56.25
2019-03-06T15:07:10.998Z,53.10
2019-03-06T15:09:40.660Z,51.25
2019-03-06T15:12:10.414Z,50.08
2019-03-06T15:14:40.049Z,56.18
2019-03-06T15:17:09.743Z,50.98
2019-03-06T15:19:39.486Z,49.95
2019-03-06T15:22:09.274Z,54.85
2019-03-06T15:24:41.613Z,46.88
2019-03-06T15:27:10.530Z,48.30
2019-03-06T15:29:40.399Z,41.88
2019-03-06T15:32:10.064Z,52.43
2019-03-06T15:34:39.689Z,45.70
2019-03-06T15:37:09.491Z,42.78
2019-03-06T15:39:44.516Z,41.28
2019-03-06T15:42:14.993Z,45.20
2019-03-06T15:44:44.651Z,42.23
2019-03-06T15:47:14.291Z,38.45
2019-03-06T15:49:43.974Z,41.28
2019-03-06T15:52:13.620Z,37.42
2019-03-06T15:54:43.291Z,36.30
2019-03-06T15:57:12.926Z,37.93
2019-03-06T15:59:42.651Z,35.48
2019-03-06T16:02:12.321Z,36.08
2019-03-06T16:04:41.947Z,35.95
2019-03-06T16:07:11.642Z,31.95
2019-03-06T16:09:41.478Z,35.92
2019-03-06T16:12:12.294Z,30.25
2019-03-06T16:14:42.011Z,35.20
2019-03-06T16:17:11.711Z,32.40
2019-03-06T16:19:41.467Z,33.63
2019-03-06T16:22:11.347Z,30.90
2019-03-06T16:24:41.047Z,32.93
2019-03-06T16:27:10.759Z,29.65
2019-03-06T16:29:40.473Z,32.28
2019-03-06T16:32:10.099Z,31.55
2019-03-06T16:34:39.686Z,35.17
2019-03-06T16:37:09.322Z,31.42
2019-03-06T16:39:39.005Z,33.88
2019-03-06T16:42:08.638Z,32.13
2019-03-06T16:44:38.327Z,33.05
2019-03-06T16:47:08.038Z,33.88
2019-03-06T16:49:38.047Z,31.70
2019-03-06T16:52:07.775Z,37.88
2019-03-06T16:54:37.477Z,37.58
2019-03-06T16:57:07.187Z,37.73
2019-03-06T16:59:37.038Z,33.23
2019-03-06T17:02:06.811Z,33.53
2019-03-06T17:04:36.459Z,32.15
2019-03-06T17:07:06.479Z,36.20
2019-03-06T17:09:36.599Z,35.17
2019-03-06T17:12:06.693Z,36.65
2019-03-06T17:14:36.397Z,34.08
2019-03-06T17:17:06.229Z,40.40
2019-03-06T17:19:35.966Z,38.42
2019-03-06T17:22:05.560Z,40.40
2019-03-06T17:24:35.084Z,40.65
2019-03-06T17:27:04.753Z,36.77
2019-03-06T17:29:34.276Z,36.40
2019-03-06T17:32:03.971Z,37.73
2019-03-06T17:34:33.704Z,39.08
2019-03-06T17:37:03.489Z,40.95
2019-03-06T17:39:33.064Z,50.52
2019-03-06T17:42:02.933Z,55.95
2019-03-06T17:44:32.626Z,40.48
2019-03-06T17:47:02.339Z,45.20
2019-03-06T17:49:31.941Z,44.13
2019-03-06T17:52:01.553Z,46.02
2019-03-06T17:54:31.297Z,46.53
2019-03-06T17:57:00.881Z,45.30
2019-03-06T17:59:31.195Z,45.23
2019-03-06T18:02:00.883Z,47.27
2019-03-06T18:04:31.527Z,48.83
2019-03-06T18:07:01.244Z,39.50
2019-03-06T18:09:30.880Z,46.42
2019-03-06T18:12:00.556Z,47.08
2019-03-06T18:14:30.199Z,43.30
2019-03-06T18:16:59.877Z,48.20
2019-03-06T18:19:29.600Z,40.95
2019-03-06T18:21:59.302Z,44.45
2019-03-06T18:24:29.124Z,44.40
2019-03-06T18:26:59.036Z,43.52
2019-03-06T18:29:28.686Z,45.35
2019-03-06T18:31:58.283Z,47.73
2019-03-06T18:34:27.973Z,42.43
2019-03-06T18:36:57.589Z,44.00
2019-03-06T18:39:28.780Z,38.13
2019-03-06T18:41:58.465Z,39.90
2019-03-06T18:44:28.263Z,41.55
2019-03-06T18:46:57.879Z,36.70
2019-03-06T18:49:27.558Z,38.20
2019-03-06T18:51:57.144Z,40.75
2019-03-06T18:54:26.805Z,40.60
2019-03-06T18:56:56.486Z,39.42
2019-03-06T18:59:26.240Z,50.25
2019-03-06T19:01:55.898Z,35.50
2019-03-06T19:04:25.594Z,39.20
2019-03-06T19:06:55.326Z,37.73
2019-03-06T19:09:25.283Z,41.95
2019-03-06T19:11:54.954Z,34.78
2019-03-06T19:14:24.600Z,34.03
2019-03-06T19:16:54.281Z,38.73
2019-03-06T19:19:23.923Z,35.25
2019-03-06T19:21:53.524Z,41.05
2019-03-06T19:24:23.551Z,31.75
2019-03-06T19:26:53.228Z,34.88
2019-03-06T19:29:23.004Z,34.27
2019-03-06T19:31:52.745Z,34.15
2019-03-06T19:34:22.453Z,33.35
2019-03-06T19:36:52.099Z,32.53
2019-03-06T19:39:22.458Z,30.90
2019-03-06T19:41:52.209Z,32.70
2019-03-06T19:44:21.832Z,32.00
2019-03-06T19:46:51.526Z,34.03
2019-03-06T19:49:21.139Z,32.88
2019-03-06T19:51:51.805Z,35.80
2019-03-06T19:54:21.677Z,34.78
2019-03-06T19:56:51.300Z,31.17
2019-03-06T19:59:20.994Z,28.27
2019-03-06T20:01:52.486Z,34.20
2019-03-06T20:04:22.153Z,33.18
2019-03-06T20:06:52.097Z,33.67
2019-03-06T20:09:26.132Z,33.38
2019-03-06T20:11:55.802Z,32.48
2019-03-06T20:14:25.418Z,35.23
2019-03-06T20:16:55.116Z,32.35
2019-03-06T20:19:24.750Z,32.70
2019-03-06T20:21:54.640Z,32.28
2019-03-06T20:24:24.256Z,32.98
2019-03-06T20:26:54.001Z,31.05
2019-03-06T20:29:23.670Z,29.42
2019-03-06T20:31:53.318Z,28.50
2019-03-06T20:34:22.992Z,31.70
2019-03-06T20:36:52.828Z,33.10
2019-03-06T20:39:22.523Z,28.25
2019-03-06T20:41:52.135Z,28.07
2019-03-06T20:44:21.844Z,29.27
2019-03-06T20:46:51.461Z,26.73
2019-03-06T20:49:21.152Z,29.92
2019-03-06T20:51:50.893Z,28.32
2019-03-06T20:54:20.574Z,29.30
2019-03-06T20:56:50.347Z,27.52
2019-03-06T20:59:19.916Z,27.50
2019-03-06T21:01:49.613Z,28.80
2019-03-06T21:04:20.203Z,31.40
2019-03-06T21:06:50.154Z,25.32
2019-03-06T21:09:19.873Z,28.50
2019-03-06T21:11:49.778Z,27.22
2019-03-06T21:14:19.501Z,29.87
2019-03-06T21:16:49.201Z,24.95
2019-03-06T21:19:18.921Z,27.42
2019-03-06T21:21:48.538Z,27.10
2019-03-06T21:24:18.238Z,27.05
2019-03-06T21:26:47.865Z,25.65
2019-03-06T21:29:17.567Z,26.27
2019-03-06T21:31:47.180Z,28.67
2019-03-06T21:34:16.884Z,24.07
2019-03-06T21:36:46.581Z,26.68
2019-03-06T21:39:23.615Z,27.82
2019-03-06T21:41:53.272Z,25.30
2019-03-06T21:44:22.917Z,25.40
2019-03-06T21:46:52.595Z,26.62
2019-03-06T21:49:22.447Z,23.20
2019-03-06T21:51:52.121Z,23.85
2019-03-06T21:54:21.950Z,25.95
2019-03-06T21:56:51.649Z,25.57
2019-03-06T21:59:21.365Z,23.25
2019-03-06T22:01:51.002Z,23.22
2019-03-06T22:04:20.684Z,24.35
2019-03-06T22:06:50.376Z,25.00
2019-03-06T22:09:20.303Z,24.60
2019-03-06T22:11:49.929Z,25.52
2019-03-06T22:14:21.165Z,24.85
2019-03-06T22:16:50.901Z,23.85
2019-03-06T22:19:20.574Z,23.87
2019-03-06T22:21:50.423Z,23.55
2019-03-06T22:24:20.197Z,22.77
2019-03-06T22:26:49.832Z,24.92
2019-03-06T22:29:19.520Z,24.72
2019-03-06T22:31:49.161Z,24.75
2019-03-06T22:34:18.746Z,23.25
2019-03-06T22:36:48.678Z,21.97
2019-03-06T22:39:18.376Z,23.50
2019-03-06T22:41:48.081Z,22.98
2019-03-06T22:44:17.710Z,22.98
2019-03-06T22:46:47.394Z,21.20
2019-03-06T22:49:17.030Z,25.90
2019-03-06T22:51:46.924Z,21.90
2019-03-06T22:54:16.555Z,18.48
2019-03-06T22:56:46.236Z,21.30
2019-03-06T22:59:15.874Z,23.22
2019-03-06T23:01:45.561Z,20.85
2019-03-06T23:04:15.286Z,19.50
2019-03-06T23:06:44.991Z,22.02
2019-03-06T23:09:14.801Z,21.52
2019-03-06T23:11:44.502Z,21.60
2019-03-06T23:14:14.212Z,20.23
2019-03-06T23:16:43.849Z,21.73
2019-03-06T23:19:13.585Z,19.80
2019-03-06T23:21:43.276Z,22.22
2019-03-06T23:24:12.960Z,19.32
2019-03-06T23:26:43.308Z,22.13
2019-03-06T23:29:13.021Z,20.20
2019-03-06T23:31:42.906Z,22.58
2019-03-06T23:34:12.540Z,18.82
2019-03-06T23:36:42.226Z,18.45
2019-03-06T23:39:14.917Z,19.87
2019-03-06T23:41:44.619Z,17.48
2019-03-06T23:44:15.762Z,19.45
2019-03-06T23:46:45.390Z,21.20
2019-03-06T23:49:15.090Z,18.02
2019-03-06T23:52:02.857Z,19.02
2019-03-06T23:54:32.658Z,17.07
2019-03-06T23:57:02.350Z,20.17
2019-03-06T23:59:31.973Z,16.48
